メインページ
METAR-TAF:

METAR-TAF

空港 :

ヌアクショット空港

ヌアクショット, モーリタニア

緯度: 18-18-36N, 経度: 015-58-11W, 海抜: 3m

現時点の気象観測

当レポートは22分前の16:30(UTC)に作成
東/北東の風 8kt
気温 29°C
湿度 11%
気圧 1014 hPa
視程10km以上
1,500メートル以下は雲なし、積乱雲なし

METAR: GQNO 171630Z 07008KT CAVOK 29/M04 Q1014 NOSIG

時間: 16:52 (16:52 UTC)

予報

当レポートは5時間52分前の11:00(UTC)に作成
予報は17日の 12時(UTC)から 18日の 18時(UTC)まで有効
の風 10kt
視程: 8000m
17日の 19時(UTC)から 17日の 22時(UTC)まで徐々に
の風 6kt
18日の 07時(UTC)から 18日の 10時(UTC)まで徐々に
東/北東の風 12kt
確率 30% :
18日の 10時(UTC)から 18日の 18時(UTC)まで一時的に
視程: 4000m
風塵

TAF: GQNO 171100Z 1712/1818 10010KT 8000 NSC BECMG 1719/1722 01006KT BECMG 1807/1810 07012KT PROB30 TEMPO 1810/1818 4000 BLDU

4,000以上の空港の気象観測と天気予報(METAR報とTAF報)

利用可能な観測所は地図上に黄色い丸と赤い丸で示す。

丸の上にカーソルを重ねると観測所名を参照できる。

次にクリックすると気象観測と天気予報を参照できる。

マップの切り替え:黒色「×」印の緑ボタンをクリックして拡大、「-」印の緑ボタンをクリックして縮小、緑色の三角印をクリックして隣りの地図に切り替え


METAR-TAF: